Time;durP1;ratioP1;P1;durP2;ratioP2;P2;SDS_P1;SDS_P2;PMS_P1;PMS_P2;Temp;Humidity;BMP_temperature;BMP_pressure;BME280_temperature;BME280_humidity;BME280_pressure;Samples;Min_cycle;Max_cycle;Signal;HPM_P1;HPM_P2
2022/01/21 00:00:04;;;;;;;12.07;4.20;;;4.90;99.90;;;;;;5009815;28;20230;-26
2022/01/21 00:02:35;;;;;;;14.70;4.03;;;4.90;99.90;;;;;;5039029;28;20206;-26
2022/01/21 00:05:03;;;;;;;15.17;4.40;;;4.80;99.90;;;;;;5009096;28;20574;-26
2022/01/21 00:07:30;;;;;;;19.03;5.33;;;4.80;99.90;;;;;;5010233;28;20202;-26
2022/01/21 00:09:57;;;;;;;12.97;4.50;;;4.80;99.90;;;;;;5009810;28;20210;-26
2022/01/21 00:12:27;;;;;;;11.83;4.13;;;4.80;99.90;;;;;;5009534;28;20208;-26
2022/01/21 00:14:56;;;;;;;13.00;4.60;;;4.80;99.90;;;;;;5007110;28;20739;-26
2022/01/21 00:17:24;;;;;;;13.83;4.93;;;4.80;99.90;;;;;;5009763;28;20205;-26
2022/01/21 00:30:04;;;;;;;14.67;5.23;;;4.80;99.90;;;;;;5008787;28;20249;-26
2022/01/21 00:31:08;;;;;;;10.17;4.67;;;4.70;99.90;;;;;;5009315;28;20576;-26
2022/01/21 00:33:38;;;;;;;12.10;4.20;;;4.80;99.90;;;;;;5007799;28;20205;-26
2022/01/21 00:36:06;;;;;;;12.77;4.53;;;4.70;99.90;;;;;;5008652;28;20241;-26
2022/01/21 00:38:36;;;;;;;11.90;4.23;;;4.70;99.90;;;;;;4993521;28;20250;-26
2022/01/21 00:41:06;;;;;;;13.43;4.63;;;4.70;99.90;;;;;;5000154;28;20579;-26
2022/01/21 00:43:43;;;;;;;19.30;4.90;;;4.80;99.90;;;;;;5007436;28;20751;-26
2022/01/21 00:46:12;;;;;;;10.53;3.73;;;4.70;99.90;;;;;;5007953;28;20352;-26
2022/01/21 00:48:42;;;;;;;13.90;4.50;;;4.70;99.90;;;;;;5009261;28;20209;-26
2022/01/21 00:51:13;;;;;;;12.40;3.87;;;4.70;99.90;;;;;;5008285;28;20336;-26
2022/01/21 00:53:45;;;;;;;9.40;3.90;;;4.70;99.90;;;;;;5008589;28;20557;-26
2022/01/21 00:56:13;;;;;;;8.40;3.63;;;4.80;99.90;;;;;;5008412;28;20202;-26
2022/01/21 00:58:40;;;;;;;12.93;3.90;;;4.70;99.90;;;;;;5008420;28;20285;-26
2022/01/21 01:01:07;;;;;;;13.67;4.40;;;4.70;99.90;;;;;;5008370;28;20190;-26
2022/01/21 01:03:38;;;;;;;10.87;3.87;;;4.70;99.90;;;;;;5008893;28;20218;-26
2022/01/21 01:06:08;;;;;;;13.17;3.47;;;4.70;99.90;;;;;;5006152;28;20202;-26
2022/01/21 01:08:35;;;;;;;10.13;3.20;;;4.70;99.90;;;;;;5037929;28;20231;-26
2022/01/21 01:21:48;;;;;;;8.33;2.60;;;4.60;99.90;;;;;;5007702;28;20233;-26
2022/01/21 01:29:43;;;;;;;12.47;3.40;;;4.60;99.90;;;;;;5008204;28;20642;-25
2022/01/21 01:32:12;;;;;;;12.37;3.00;;;4.60;99.90;;;;;;5008892;28;20741;-25
2022/01/21 01:34:42;;;;;;;10.13;2.73;;;4.60;99.90;;;;;;5006305;28;20208;-24
2022/01/21 01:37:18;;;;;;;9.17;2.47;;;4.60;99.90;;;;;;5008486;28;20206;-25
2022/01/21 01:39:58;;;;;;;13.27;2.80;;;4.60;99.90;;;;;;5007834;28;20225;-24
2022/01/21 01:50:37;;;;;;;9.00;2.60;;;4.60;99.90;;;;;;5007233;28;20237;-24
2022/01/21 01:53:06;;;;;;;10.13;2.40;;;4.60;99.90;;;;;;5008008;28;20216;-24
2022/01/21 01:55:36;;;;;;;11.80;3.03;;;4.60;99.90;;;;;;5008036;28;20216;-24
2022/01/21 01:58:06;;;;;;;10.03;2.83;;;4.60;99.90;;;;;;5005495;28;20201;-25
2022/01/21 02:00:36;;;;;;;13.93;3.40;;;4.70;99.90;;;;;;5007624;28;20202;-24
2022/01/21 02:03:11;;;;;;;12.13;3.10;;;4.60;99.90;;;;;;5010878;28;20267;-24
2022/01/21 02:05:42;;;;;;;14.43;3.23;;;4.70;99.90;;;;;;5037329;28;20211;-24
2022/01/21 02:08:10;;;;;;;11.27;2.50;;;4.70;99.90;;;;;;5007600;28;20557;-24
2022/01/21 02:10:40;;;;;;;9.93;2.83;;;4.70;99.90;;;;;;5007506;28;20222;-24
2022/01/21 02:13:21;;;;;;;11.93;2.93;;;4.70;99.90;;;;;;5007693;28;20197;-24
2022/01/21 02:15:58;;;;;;;9.73;2.57;;;4.70;99.90;;;;;;5007248;28;20198;-24
2022/01/21 02:21:38;;;;;;;11.50;2.60;;;4.70;99.90;;;;;;5005455;28;20448;-24
2022/01/21 02:24:14;;;;;;;11.60;2.87;;;4.80;99.90;;;;;;5007877;28;20259;-24
2022/01/21 02:26:48;;;;;;;10.63;2.97;;;4.80;99.90;;;;;;5002509;28;20217;-24
2022/01/21 02:29:32;;;;;;;9.03;3.07;;;4.80;99.90;;;;;;5007492;28;20198;-25
2022/01/21 02:32:02;;;;;;;9.17;2.70;;;4.80;99.90;;;;;;5005166;28;20227;-24
2022/01/21 02:34:32;;;;;;;15.10;2.83;;;4.80;99.90;;;;;;5005953;28;20201;-24
2022/01/21 02:37:05;;;;;;;10.33;2.30;;;4.80;99.90;;;;;;5006836;28;20221;-24
2022/01/21 02:39:32;;;;;;;13.23;3.27;;;4.80;99.90;;;;;;5022298;28;20224;-24
2022/01/21 02:42:02;;;;;;;13.27;3.00;;;4.80;99.90;;;;;;5003482;28;20210;-24
2022/01/21 02:44:31;;;;;;;11.87;3.00;;;4.80;99.90;;;;;;5006568;28;20264;-24
2022/01/21 02:47:02;;;;;;;12.47;3.10;;;4.80;99.90;;;;;;5007272;28;20213;-24
2022/01/21 02:49:32;;;;;;;12.93;2.93;;;4.90;99.90;;;;;;5020526;28;20236;-24
2022/01/21 02:52:07;;;;;;;13.57;2.53;;;4.90;99.90;;;;;;5004814;28;21143;-24
2022/01/21 02:54:36;;;;;;;7.97;2.77;;;4.90;99.90;;;;;;5006813;28;20672;-25
2022/01/21 02:57:09;;;;;;;9.10;2.87;;;4.90;99.90;;;;;;5005607;28;20197;-24
2022/01/21 02:59:38;;;;;;;10.43;2.83;;;4.90;99.90;;;;;;5007150;28;20271;-24
2022/01/21 03:02:06;;;;;;;9.93;2.97;;;4.90;99.90;;;;;;5006968;28;20217;-24
2022/01/21 03:07:04;;;;;;;10.83;2.90;;;5.00;99.90;;;;;;5006616;28;20208;-24
2022/01/21 03:09:33;;;;;;;8.70;2.43;;;5.00;99.90;;;;;;5007096;28;20217;-24
2022/01/21 03:12:00;;;;;;;14.00;3.17;;;5.00;99.90;;;;;;4997578;28;20221;-24
2022/01/21 03:14:30;;;;;;;11.67;2.60;;;5.00;99.90;;;;;;4996571;28;20271;-24
2022/01/21 03:16:59;;;;;;;11.97;2.87;;;5.00;99.90;;;;;;5006139;28;20583;-24
2022/01/21 03:19:32;;;;;;;12.37;2.73;;;5.00;99.90;;;;;;5005792;28;20711;-24
2022/01/21 03:22:02;;;;;;;12.13;2.80;;;5.00;99.90;;;;;;5007656;28;20201;-24
2022/01/21 03:24:29;;;;;;;9.80;2.67;;;5.00;99.90;;;;;;5006950;28;20291;-24
2022/01/21 03:27:01;;;;;;;8.87;2.33;;;5.00;99.90;;;;;;5007087;28;20271;-24
2022/01/21 03:29:28;;;;;;;8.67;2.70;;;5.00;99.90;;;;;;5007138;28;20292;-24
2022/01/21 03:31:55;;;;;;;9.70;3.10;;;5.00;99.90;;;;;;5006407;28;20617;-24
2022/01/21 03:34:23;;;;;;;7.80;2.23;;;5.00;99.90;;;;;;5009911;28;20402;-24
2022/01/21 03:36:53;;;;;;;7.47;2.07;;;5.00;99.90;;;;;;5041167;28;20389;-24
2022/01/21 03:39:23;;;;;;;7.87;2.23;;;5.00;99.90;;;;;;5010580;28;20217;-24
2022/01/21 03:41:50;;;;;;;8.63;2.50;;;5.00;99.90;;;;;;5009576;28;20213;-24
2022/01/21 03:44:18;;;;;;;11.03;2.50;;;5.00;99.90;;;;;;5010518;28;20264;-24
2022/01/21 03:46:47;;;;;;;9.43;2.47;;;5.00;99.90;;;;;;5000388;28;20206;-24
2022/01/21 03:49:15;;;;;;;9.07;2.07;;;5.00;99.90;;;;;;5018391;28;20223;-24
2022/01/21 03:51:43;;;;;;;8.73;2.10;;;5.00;99.90;;;;;;5009111;28;20742;-24
2022/01/21 03:54:10;;;;;;;8.80;2.33;;;5.00;99.90;;;;;;5009396;28;20236;-24
2022/01/21 03:56:40;;;;;;;7.27;2.10;;;5.00;99.90;;;;;;5010332;28;20205;-24
2022/01/21 03:59:09;;;;;;;12.63;2.50;;;5.00;99.90;;;;;;5009552;28;20221;-24
2022/01/21 04:01:37;;;;;;;9.90;1.90;;;5.00;99.90;;;;;;5007765;28;20592;-24
2022/01/21 04:04:07;;;;;;;8.67;2.10;;;5.00;99.90;;;;;;4993937;28;20202;-25
2022/01/21 04:06:34;;;;;;;4.77;1.77;;;5.00;99.90;;;;;;5000016;28;20208;-24
2022/01/21 04:09:06;;;;;;;10.60;2.20;;;5.00;99.90;;;;;;5010038;28;20613;-24
2022/01/21 04:11:37;;;;;;;6.57;1.90;;;5.00;99.90;;;;;;5009686;28;20748;-24
2022/01/21 04:14:05;;;;;;;7.50;2.63;;;5.00;99.90;;;;;;5009259;28;20281;-24
2022/01/21 04:16:32;;;;;;;7.80;2.10;;;5.00;99.90;;;;;;5009900;28;20676;-24
2022/01/21 04:18:59;;;;;;;9.63;2.43;;;5.00;99.90;;;;;;5009968;28;20728;-24
2022/01/21 04:21:32;;;;;;;11.27;2.03;;;5.00;99.90;;;;;;5009147;28;20259;-24
2022/01/21 04:23:59;;;;;;;11.47;2.20;;;5.00;99.90;;;;;;5009421;28;20240;-24
2022/01/21 04:26:28;;;;;;;9.53;2.30;;;5.00;99.90;;;;;;5024549;28;20201;-24
2022/01/21 04:28:58;;;;;;;5.53;2.17;;;5.00;99.90;;;;;;5039768;28;21088;-24
2022/01/21 04:31:27;;;;;;;10.70;2.20;;;4.90;99.90;;;;;;5009621;28;20298;-24
2022/01/21 04:33:55;;;;;;;6.87;1.80;;;4.90;99.90;;;;;;5009196;28;20293;-25
2022/01/21 04:36:24;;;;;;;7.73;1.77;;;4.90;99.90;;;;;;5008190;28;20194;-24
2022/01/21 04:38:54;;;;;;;8.77;2.07;;;4.90;99.90;;;;;;5008946;28;20329;-24
2022/01/21 04:49:32;;;;;;;7.20;1.77;;;4.80;99.90;;;;;;5008527;28;20594;-24
2022/01/21 04:52:04;;;;;;;6.60;1.70;;;4.80;99.90;;;;;;5008901;28;20242;-24
2022/01/21 04:54:38;;;;;;;8.10;1.60;;;4.80;99.90;;;;;;5008611;28;20215;-24
2022/01/21 04:57:06;;;;;;;7.20;1.70;;;4.80;99.90;;;;;;5009242;28;20218;-24
2022/01/21 04:59:36;;;;;;;7.40;1.80;;;4.80;99.90;;;;;;5008732;28;20217;-24
2022/01/21 05:02:03;;;;;;;7.97;1.50;;;4.80;99.90;;;;;;5009278;28;20606;-24
2022/01/21 05:04:36;;;;;;;9.30;1.90;;;4.80;99.90;;;;;;5020608;28;20221;-24
2022/01/21 05:07:07;;;;;;;9.17;2.03;;;4.80;99.90;;;;;;5008739;28;20202;-24
2022/01/21 05:09:35;;;;;;;7.83;1.83;;;4.80;99.90;;;;;;5008710;28;20749;-24
2022/01/21 05:12:08;;;;;;;9.53;1.73;;;4.70;99.90;;;;;;5007242;28;20202;-25
2022/01/21 05:17:28;;;;;;;8.93;2.10;;;4.70;99.90;;;;;;5008473;28;20206;-24
2022/01/21 05:19:57;;;;;;;11.07;2.33;;;4.70;99.90;;;;;;4997451;28;20226;-25
2022/01/21 05:22:24;;;;;;;11.60;2.33;;;4.70;99.90;;;;;;4997184;28;20209;-25
2022/01/21 05:24:54;;;;;;;7.67;2.30;;;4.70;99.90;;;;;;5008365;28;20628;-24
2022/01/21 05:27:25;;;;;;;8.77;2.50;;;4.70;99.90;;;;;;5008029;28;20236;-24
2022/01/21 05:29:54;;;;;;;7.10;2.40;;;4.70;99.90;;;;;;5008162;28;20198;-24
2022/01/21 05:32:24;;;;;;;8.90;2.40;;;4.70;99.90;;;;;;5008175;28;20236;-24
2022/01/21 05:34:51;;;;;;;9.27;2.40;;;4.70;99.90;;;;;;5007241;28;20710;-25
2022/01/21 05:37:20;;;;;;;9.47;2.30;;;4.80;99.90;;;;;;5023045;28;20201;-24
2022/01/21 05:39:52;;;;;;;12.53;2.73;;;4.80;99.90;;;;;;5039625;28;20222;-24
2022/01/21 05:42:22;;;;;;;6.70;2.70;;;4.80;99.90;;;;;;5007951;28;20212;-24
2022/01/21 05:47:19;;;;;;;10.50;3.23;;;4.90;99.90;;;;;;4998948;28;20202;-24
2022/01/21 05:49:46;;;;;;;8.93;2.77;;;4.90;99.90;;;;;;4997108;28;20220;-25
2022/01/21 05:52:18;;;;;;;9.20;2.93;;;4.90;99.90;;;;;;4988889;28;20218;-24
2022/01/21 05:54:51;;;;;;;11.33;2.80;;;5.00;99.90;;;;;;4999543;28;20205;-24
2022/01/21 05:57:20;;;;;;;12.30;2.80;;;5.00;99.90;;;;;;5007409;28;20213;-24
2022/01/21 05:59:55;;;;;;;10.73;2.97;;;5.00;99.90;;;;;;4998301;28;20222;-24
2022/01/21 06:02:25;;;;;;;10.20;3.60;;;5.00;99.90;;;;;;5037252;28;20201;-24
2022/01/21 06:04:53;;;;;;;11.77;3.63;;;5.10;99.90;;;;;;5007072;28;20624;-24
2022/01/21 06:07:25;;;;;;;11.87;3.40;;;5.10;99.90;;;;;;5007748;28;20202;-24
2022/01/21 06:09:52;;;;;;;8.37;3.37;;;5.10;99.90;;;;;;5001816;28;20225;-24
2022/01/21 06:12:19;;;;;;;11.37;3.30;;;5.20;99.90;;;;;;5018731;28;20845;-25
2022/01/21 06:14:49;;;;;;;11.83;3.00;;;5.20;99.90;;;;;;5001433;28;20297;-24
2022/01/21 06:17:16;;;;;;;10.27;3.40;;;5.20;99.90;;;;;;5002200;28;20221;-24
2022/01/21 06:19:46;;;;;;;13.53;3.00;;;5.20;99.90;;;;;;5001852;28;21626;-24
2022/01/21 06:22:16;;;;;;;9.67;3.67;;;5.20;99.90;;;;;;5004402;28;20206;-24
2022/01/21 06:24:46;;;;;;;5.73;2.93;;;5.20;99.90;;;;;;4997829;28;20345;-24
2022/01/21 06:27:16;;;;;;;7.57;2.80;;;5.20;99.90;;;;;;5005516;28;20217;-24
2022/01/21 06:29:45;;;;;;;7.13;3.07;;;5.20;99.90;;;;;;5004507;28;20627;-24
2022/01/21 06:32:12;;;;;;;9.33;3.73;;;5.20;99.90;;;;;;5006170;28;20201;-24
2022/01/21 06:34:42;;;;;;;8.70;3.53;;;5.10;99.90;;;;;;5001190;28;20226;-25
2022/01/21 06:37:09;;;;;;;6.77;2.83;;;5.10;99.90;;;;;;5006674;28;20727;-24
2022/01/21 06:39:41;;;;;;;13.77;3.77;;;5.10;99.90;;;;;;5018603;28;20233;-24
2022/01/21 06:42:11;;;;;;;9.47;3.43;;;5.10;99.90;;;;;;5021434;28;20197;-24
2022/01/21 06:44:38;;;;;;;9.10;3.50;;;5.10;99.90;;;;;;5005414;28;20646;-24
2022/01/21 06:47:08;;;;;;;8.57;3.97;;;5.10;99.90;;;;;;5003920;28;20198;-24
2022/01/21 06:49:38;;;;;;;8.20;3.53;;;5.10;99.90;;;;;;5021116;28;20209;-24
2022/01/21 06:52:05;;;;;;;11.50;3.30;;;5.10;99.90;;;;;;5006313;28;20201;-24
2022/01/21 06:54:33;;;;;;;9.30;3.73;;;5.00;99.90;;;;;;5010368;28;20224;-24
2022/01/21 06:57:00;;;;;;;8.53;3.40;;;5.00;99.90;;;;;;4988956;28;20213;-24
2022/01/21 06:59:29;;;;;;;11.87;3.60;;;5.00;99.90;;;;;;4991848;28;20202;-24
2022/01/21 07:02:00;;;;;;;10.93;4.17;;;5.00;99.90;;;;;;5004240;28;21029;-25
2022/01/21 07:04:27;;;;;;;11.03;3.83;;;5.00;99.90;;;;;;5006573;28;20201;-24
2022/01/21 07:06:58;;;;;;;11.20;3.50;;;5.00;99.90;;;;;;5001459;28;20665;-24
2022/01/21 07:09:32;;;;;;;11.23;4.20;;;5.00;99.90;;;;;;5010573;28;20233;-24
2022/01/21 07:12:01;;;;;;;7.30;3.77;;;5.00;99.90;;;;;;4997726;28;20324;-24
2022/01/21 07:14:29;;;;;;;7.57;3.73;;;5.00;99.90;;;;;;4991673;28;20669;-24
2022/01/21 07:16:56;;;;;;;10.80;3.80;;;5.00;99.90;;;;;;4999880;28;20247;-24
2022/01/21 07:19:26;;;;;;;8.10;4.37;;;4.90;99.90;;;;;;5009920;28;20217;-24
2022/01/21 07:21:59;;;;;;;10.53;4.00;;;4.90;99.90;;;;;;5009408;28;20220;-24
2022/01/21 07:24:26;;;;;;;9.63;3.80;;;4.90;99.90;;;;;;5010713;28;20221;-24
2022/01/21 07:26:53;;;;;;;9.17;4.50;;;4.90;99.90;;;;;;5010341;28;20232;-24
2022/01/21 07:29:20;;;;;;;10.90;4.73;;;4.90;99.90;;;;;;5010956;28;20324;-24
2022/01/21 07:31:53;;;;;;;11.77;4.73;;;4.90;99.90;;;;;;5025070;28;20209;-24
2022/01/21 07:34:25;;;;;;;14.10;4.00;;;4.90;99.90;;;;;;5010503;28;20296;-24
2022/01/21 07:36:53;;;;;;;7.97;4.30;;;4.90;99.90;;;;;;5003353;28;20237;-25
2022/01/21 07:39:24;;;;;;;8.13;3.97;;;4.90;99.90;;;;;;5009036;28;20209;-24
2022/01/21 07:41:54;;;;;;;9.33;4.53;;;4.90;99.90;;;;;;5008258;28;20225;-24
2022/01/21 07:44:21;;;;;;;13.20;4.70;;;5.00;99.90;;;;;;5018753;28;20214;-24
2022/01/21 07:46:51;;;;;;;15.80;5.17;;;5.00;99.90;;;;;;5006445;28;20201;-24
2022/01/21 07:49:18;;;;;;;10.77;4.67;;;5.00;99.90;;;;;;5024678;28;20680;-24
2022/01/21 07:51:46;;;;;;;10.33;4.00;;;5.00;99.90;;;;;;5008929;28;20245;-24
2022/01/21 07:54:16;;;;;;;8.87;3.77;;;5.00;99.90;;;;;;5009983;28;20218;-24
2022/01/21 07:56:45;;;;;;;10.30;4.27;;;5.00;99.90;;;;;;5009449;28;20574;-24
2022/01/21 07:59:14;;;;;;;10.93;4.73;;;5.10;99.90;;;;;;5009711;28;20585;-24
2022/01/21 08:01:42;;;;;;;9.23;3.90;;;5.10;99.90;;;;;;5006967;28;20665;-24
2022/01/21 08:04:10;;;;;;;10.67;4.23;;;5.10;99.90;;;;;;5009383;28;20209;-24
2022/01/21 08:06:44;;;;;;;11.90;4.23;;;5.10;99.90;;;;;;5008812;28;20189;-24
2022/01/21 08:09:15;;;;;;;9.03;4.30;;;5.10;99.90;;;;;;5010012;28;20610;-24
2022/01/21 08:11:43;;;;;;;8.53;3.90;;;5.10;99.90;;;;;;5040277;28;20217;-24
2022/01/21 08:14:13;;;;;;;10.50;4.20;;;5.10;99.90;;;;;;5021105;28;20204;-24
2022/01/21 08:16:40;;;;;;;9.93;3.67;;;5.20;99.90;;;;;;5009380;28;20209;-24
2022/01/21 08:19:08;;;;;;;9.50;3.30;;;5.20;99.90;;;;;;5008680;28;20260;-24
2022/01/21 08:21:35;;;;;;;10.97;3.47;;;5.20;99.90;;;;;;5007561;28;20228;-24
2022/01/21 08:24:07;;;;;;;6.50;2.80;;;5.30;99.90;;;;;;5008758;28;20194;-24
2022/01/21 08:26:36;;;;;;;9.73;3.17;;;5.30;99.90;;;;;;5007289;28;20217;-24
2022/01/21 08:29:05;;;;;;;9.40;3.77;;;5.30;99.90;;;;;;5004324;28;20251;-24
2022/01/21 08:31:35;;;;;;;6.87;2.80;;;5.40;99.90;;;;;;5030220;28;20225;-24
2022/01/21 08:34:03;;;;;;;5.90;2.70;;;5.40;99.90;;;;;;5007715;28;20209;-24
2022/01/21 08:36:32;;;;;;;6.20;2.73;;;5.40;99.90;;;;;;5008140;28;20727;-24
2022/01/21 08:39:00;;;;;;;8.13;3.10;;;5.40;99.90;;;;;;5007206;28;20213;-24
2022/01/21 08:41:27;;;;;;;12.37;3.43;;;5.40;99.90;;;;;;4999375;28;20225;-24
2022/01/21 08:43:55;;;;;;;11.80;3.47;;;5.50;99.90;;;;;;5008738;28;20650;-24
2022/01/21 08:46:23;;;;;;;5.40;2.63;;;5.50;99.90;;;;;;5007056;28;20228;-24
2022/01/21 08:48:50;;;;;;;10.10;3.43;;;5.50;99.90;;;;;;5007593;28;20285;-24
2022/01/21 08:51:26;;;;;;;8.47;2.63;;;5.60;99.90;;;;;;5006158;28;20715;-24
2022/01/21 08:53:55;;;;;;;13.80;3.30;;;5.60;99.90;;;;;;5008818;28;20205;-24
2022/01/21 08:56:26;;;;;;;11.57;3.10;;;5.60;99.90;;;;;;5008273;28;20723;-24
2022/01/21 08:58:53;;;;;;;7.03;3.13;;;5.70;99.90;;;;;;5007682;28;20300;-24
2022/01/21 09:01:22;;;;;;;10.93;3.60;;;5.70;99.90;;;;;;5008796;28;20291;-24
2022/01/21 09:03:51;;;;;;;11.13;2.80;;;5.70;99.90;;;;;;5008503;28;20565;-24
2022/01/21 09:06:23;;;;;;;8.87;3.47;;;5.70;99.90;;;;;;5007577;28;20215;-24
2022/01/21 09:08:50;;;;;;;10.67;3.37;;;5.80;99.90;;;;;;5000579;28;20209;-24
2022/01/21 09:11:20;;;;;;;8.90;3.47;;;5.80;99.90;;;;;;5008060;28;20679;-24
2022/01/21 09:13:48;;;;;;;10.63;4.20;;;5.80;99.90;;;;;;4995907;28;20260;-24
2022/01/21 09:16:19;;;;;;;13.10;3.20;;;5.80;99.90;;;;;;5004743;28;20529;-25
2022/01/21 09:18:58;;;;;;;10.70;3.60;;;5.80;99.90;;;;;;5007076;28;20296;-33
2022/01/21 09:21:32;;;;;;;7.83;2.93;;;5.90;99.90;;;;;;5006023;28;20228;-24
2022/01/21 09:24:00;;;;;;;7.57;3.37;;;5.90;99.90;;;;;;5008323;28;20228;-24
2022/01/21 09:26:28;;;;;;;7.33;2.97;;;5.90;99.90;;;;;;5022857;28;20495;-24
2022/01/21 09:29:05;;;;;;;11.30;3.00;;;5.90;99.90;;;;;;5007624;28;20209;-24
2022/01/21 09:31:35;;;;;;;9.40;3.27;;;5.90;99.90;;;;;;5005959;28;20209;-24
2022/01/21 09:34:24;;;;;;;5.90;2.60;;;6.00;99.90;;;;;;5009875;28;20687;-24
2022/01/21 09:36:55;;;;;;;5.93;2.60;;;6.00;99.90;;;;;;5011340;28;20205;-24
2022/01/21 09:39:27;;;;;;;6.87;2.67;;;6.00;99.90;;;;;;5006387;28;20205;-24
2022/01/21 09:42:00;;;;;;;8.83;3.00;;;6.10;99.90;;;;;;5022515;28;20238;-24
2022/01/21 09:44:29;;;;;;;10.13;2.70;;;6.10;99.90;;;;;;5023774;28;20198;-24
2022/01/21 09:46:59;;;;;;;8.30;2.37;;;6.20;99.90;;;;;;5007168;28;20223;-25
2022/01/21 09:49:29;;;;;;;5.20;3.03;;;6.20;99.90;;;;;;5008468;28;20189;-24
2022/01/21 09:52:03;;;;;;;9.07;2.60;;;6.30;99.90;;;;;;5006517;28;20698;-24
2022/01/21 09:54:34;;;;;;;8.23;3.17;;;6.30;99.90;;;;;;5008090;28;20271;-24
2022/01/21 09:57:06;;;;;;;8.60;3.07;;;6.30;99.90;;;;;;5007243;28;20193;-24
2022/01/21 09:59:36;;;;;;;13.07;3.50;;;6.40;99.90;;;;;;5007855;28;20280;-25
2022/01/21 10:02:08;;;;;;;9.43;3.00;;;6.40;99.90;;;;;;5005848;28;20217;-24
2022/01/21 10:04:41;;;;;;;6.80;3.17;;;6.40;99.90;;;;;;5004865;28;20205;-24
2022/01/21 10:07:16;;;;;;;8.80;3.03;;;6.40;99.90;;;;;;5005808;28;20231;-24
2022/01/21 10:09:48;;;;;;;12.20;3.87;;;6.40;99.90;;;;;;5006175;28;20664;-24
2022/01/21 10:12:17;;;;;;;8.77;3.80;;;6.50;99.90;;;;;;5005348;28;20202;-24
2022/01/21 10:14:45;;;;;;;9.70;3.93;;;6.50;99.90;;;;;;5007334;28;20233;-24
2022/01/21 10:17:14;;;;;;;8.13;3.17;;;6.50;99.90;;;;;;5037744;28;20210;-24
2022/01/21 10:19:45;;;;;;;11.30;3.83;;;6.50;99.90;;;;;;5005440;28;20208;-24
2022/01/21 10:22:18;;;;;;;12.10;3.33;;;6.60;99.90;;;;;;5020644;28;20235;-24
2022/01/21 10:24:57;;;;;;;10.97;3.30;;;6.60;99.90;;;;;;5008062;28;20207;-24
2022/01/21 10:27:35;;;;;;;7.90;3.47;;;6.60;99.90;;;;;;5013564;28;20209;-23
2022/01/21 10:30:23;;;;;;;12.67;3.47;;;6.60;99.90;;;;;;5007680;28;20208;-25
2022/01/21 10:32:51;;;;;;;8.17;3.20;;;6.60;99.90;;;;;;5041795;28;20303;-23
2022/01/21 10:35:35;;;;;;;6.93;3.33;;;6.60;99.90;;;;;;5008697;28;20202;-23
2022/01/21 10:38:28;;;;;;;10.97;3.33;;;6.70;99.90;;;;;;5006824;28;20213;-23
2022/01/21 10:41:08;;;;;;;9.90;3.27;;;6.70;99.90;;;;;;5004240;28;20224;-23
2022/01/21 10:43:35;;;;;;;9.80;3.20;;;6.80;99.90;;;;;;5013317;28;20301;-23
2022/01/21 10:46:03;;;;;;;9.03;2.83;;;6.80;99.90;;;;;;5010653;28;20204;-23
2022/01/21 10:49:08;;;;;;;10.93;3.10;;;6.80;99.90;;;;;;5004141;28;20201;-23
2022/01/21 10:51:41;;;;;;;9.67;3.00;;;6.90;99.90;;;;;;4997691;28;20237;-24
2022/01/21 10:54:16;;;;;;;12.17;3.23;;;6.90;99.90;;;;;;5024344;28;20205;-23
2022/01/21 10:57:11;;;;;;;8.13;3.13;;;6.90;99.90;;;;;;5009617;28;20217;-23
2022/01/21 10:59:49;;;;;;;10.27;3.40;;;7.00;99.90;;;;;;5011391;28;20299;-23
2022/01/21 11:02:53;;;;;;;10.80;2.90;;;7.10;99.90;;;;;;5010113;28;20225;-23
2022/01/21 11:05:31;;;;;;;9.47;2.90;;;7.20;99.90;;;;;;5008017;28;20206;-23
2022/01/21 11:08:08;;;;;;;10.50;2.93;;;7.30;99.90;;;;;;5025044;28;20197;-23
2022/01/21 11:10:38;;;;;;;7.47;2.77;;;7.30;99.90;;;;;;5010403;28;20240;-23
2022/01/21 11:13:12;;;;;;;12.23;2.87;;;7.40;99.90;;;;;;5008898;28;20418;-23
2022/01/21 11:15:41;;;;;;;12.80;3.40;;;7.40;99.90;;;;;;4997889;28;20297;-23
2022/01/21 11:18:55;;;;;;;11.63;3.20;;;7.40;99.90;;;;;;5010248;28;20204;-23
2022/01/21 11:21:23;;;;;;;13.07;3.27;;;7.50;99.90;;;;;;5011167;28;20279;-23
2022/01/21 11:24:04;;;;;;;14.50;3.47;;;7.50;99.90;;;;;;5024665;28;20208;-23
2022/01/21 11:26:34;;;;;;;8.40;2.60;;;7.50;99.90;;;;;;5008512;28;20233;-23
2022/01/21 11:29:05;;;;;;;13.63;3.60;;;7.50;99.90;;;;;;5010401;28;20220;-24
2022/01/21 11:31:33;;;;;;;12.47;3.70;;;7.50;99.90;;;;;;5010867;28;20233;-23
2022/01/21 11:34:11;;;;;;;13.73;3.30;;;7.60;99.90;;;;;;5008499;28;20304;-23
2022/01/21 11:36:38;;;;;;;11.87;3.13;;;7.60;99.90;;;;;;5009813;28;20252;-23
2022/01/21 11:39:06;;;;;;;12.07;3.00;;;7.60;99.90;;;;;;5007845;28;20197;-23
2022/01/21 11:41:39;;;;;;;11.77;3.10;;;7.70;99.90;;;;;;5009896;28;20784;-23
2022/01/21 11:44:11;;;;;;;9.60;2.87;;;7.70;99.90;;;;;;5009840;28;20696;-23
2022/01/21 11:46:48;;;;;;;11.40;3.70;;;7.80;99.90;;;;;;5026812;28;20582;-23
2022/01/21 11:49:19;;;;;;;13.07;3.07;;;7.80;99.90;;;;;;5016478;28;20194;-23
2022/01/21 11:51:47;;;;;;;15.70;3.60;;;7.80;99.90;;;;;;5007659;28;20234;-23
2022/01/21 11:54:24;;;;;;;15.40;3.80;;;7.80;99.90;;;;;;5008125;28;20201;-23
2022/01/21 11:57:05;;;;;;;9.07;2.90;;;7.80;99.90;;;;;;5006740;28;20667;-23
2022/01/21 12:02:21;;;;;;;11.27;3.03;;;7.90;99.90;;;;;;5009308;28;20584;-23
2022/01/21 12:04:51;;;;;;;11.37;3.07;;;8.00;99.90;;;;;;5023045;28;20201;-23
2022/01/21 12:07:36;;;;;;;12.57;3.67;;;8.00;99.90;;;;;;5006064;28;20225;-24
2022/01/21 12:10:06;;;;;;;12.37;3.20;;;8.00;99.90;;;;;;5014463;28;20217;-23
2022/01/21 12:13:08;;;;;;;11.07;3.87;;;8.00;99.90;;;;;;5009314;28;20298;-23
2022/01/21 12:15:45;;;;;;;10.07;3.60;;;8.10;99.90;;;;;;5008997;28;20304;-24
2022/01/21 12:18:35;;;;;;;13.13;3.87;;;8.10;99.90;;;;;;5009359;28;20333;-24
2022/01/21 12:21:25;;;;;;;12.73;3.90;;;8.10;99.90;;;;;;5007402;28;20588;-23
2022/01/21 12:23:59;;;;;;;19.03;5.13;;;8.10;99.90;;;;;;5006779;28;20681;-24
2022/01/21 12:26:29;;;;;;;10.67;3.93;;;8.10;99.90;;;;;;5023958;28;20718;-24
2022/01/21 12:28:59;;;;;;;9.50;3.43;;;8.10;99.90;;;;;;4990083;28;20292;-24
2022/01/21 12:31:42;;;;;;;14.17;3.60;;;8.10;99.90;;;;;;4989822;28;20293;-24
2022/01/21 12:34:13;;;;;;;13.27;4.13;;;8.10;99.90;;;;;;5001606;28;20695;-23
2022/01/21 12:36:52;;;;;;;14.97;4.00;;;8.10;99.90;;;;;;5007053;28;20209;-24
2022/01/21 12:39:40;;;;;;;14.70;5.13;;;8.20;99.90;;;;;;5023246;28;20202;-24
2022/01/21 12:42:19;;;;;;;15.10;4.70;;;8.20;99.90;;;;;;5008276;28;20252;-23
2022/01/21 12:44:50;;;;;;;12.93;4.00;;;8.20;99.90;;;;;;5008397;28;20673;-23
2022/01/21 12:47:38;;;;;;;12.73;3.83;;;8.20;99.90;;;;;;5008912;28;20742;-23
2022/01/21 12:50:12;;;;;;;11.77;4.83;;;8.20;99.90;;;;;;4988776;28;20234;-24
2022/01/21 12:58:22;;;;;;;14.60;4.73;;;8.30;99.90;;;;;;4992298;28;20201;-23
2022/01/21 13:00:59;;;;;;;13.50;4.80;;;8.30;99.90;;;;;;5008211;28;20795;-24
2022/01/21 13:03:46;;;;;;;9.37;3.90;;;8.30;99.90;;;;;;5040003;28;20221;-23
2022/01/21 13:06:19;;;;;;;10.97;4.27;;;8.30;99.90;;;;;;5008393;28;20215;-24
2022/01/21 13:09:08;;;;;;;13.47;4.20;;;8.30;99.90;;;;;;5008753;28;20481;-23
2022/01/21 13:11:52;;;;;;;11.40;3.90;;;8.30;99.90;;;;;;5009105;28;20218;-24
2022/01/21 13:17:00;;;;;;;11.17;3.80;;;8.30;99.90;;;;;;5009146;28;20204;-23
2022/01/21 13:19:30;;;;;;;12.93;3.90;;;8.30;99.90;;;;;;5008420;28;20714;-24
2022/01/21 13:22:00;;;;;;;10.40;4.17;;;8.40;99.90;;;;;;5006388;28;20217;-24
2022/01/21 13:24:29;;;;;;;8.30;3.80;;;8.40;99.90;;;;;;5012512;28;20209;-24
2022/01/21 13:26:58;;;;;;;9.63;3.17;;;8.40;99.90;;;;;;5008338;28;20654;-24
2022/01/21 13:29:37;;;;;;;13.40;4.40;;;8.40;99.90;;;;;;5006956;28;20224;-24
2022/01/21 13:32:05;;;;;;;13.30;3.77;;;8.50;99.90;;;;;;5008302;28;20308;-23
2022/01/21 13:34:40;;;;;;;8.23;3.70;;;8.50;99.90;;;;;;5006345;28;20201;-23
2022/01/21 13:37:10;;;;;;;9.27;3.27;;;8.50;99.90;;;;;;5007742;28;20567;-23
2022/01/21 13:39:42;;;;;;;6.30;3.40;;;8.50;99.90;;;;;;5007470;28;20267;-23
2022/01/21 13:42:24;;;;;;;9.93;3.87;;;8.50;99.90;;;;;;5007024;28;20217;-23
2022/01/21 13:44:56;;;;;;;12.07;3.67;;;8.60;99.90;;;;;;5007138;28;20193;-24
2022/01/21 13:47:34;;;;;;;7.47;3.20;;;8.60;99.90;;;;;;5039213;28;20248;-24
2022/01/21 13:50:30;;;;;;;14.20;4.00;;;8.60;99.90;;;;;;5022130;28;20672;-24
2022/01/21 13:53:08;;;;;;;11.20;3.53;;;8.60;99.90;;;;;;5005050;28;20197;-24
2022/01/21 13:55:42;;;;;;;7.93;3.30;;;8.60;99.90;;;;;;5006247;28;20279;-23
2022/01/21 13:58:17;;;;;;;11.23;4.23;;;8.60;99.90;;;;;;5021850;28;20241;-24
2022/01/21 14:00:53;;;;;;;9.70;3.40;;;8.60;99.90;;;;;;5007607;28;20206;-24
2022/01/21 14:03:32;;;;;;;14.03;3.97;;;8.60;99.90;;;;;;4996406;28;20217;-24
2022/01/21 14:06:00;;;;;;;7.47;3.87;;;8.70;99.90;;;;;;5001855;28;20667;-24
2022/01/21 14:08:30;;;;;;;7.57;3.53;;;8.70;99.90;;;;;;5006262;28;20669;-24
2022/01/21 14:11:04;;;;;;;8.67;3.30;;;8.70;99.90;;;;;;5003190;28;20212;-26
2022/01/21 14:13:36;;;;;;;6.73;2.87;;;8.70;99.90;;;;;;5004399;28;20213;-25
2022/01/21 14:16:09;;;;;;;8.30;3.60;;;8.70;99.90;;;;;;5017024;28;20625;-25